»·PEaware :: N902SQ KSAD-KABQ

N902SQ :: KSAD-KABQ

FLIGHT INFORMATION

Flight Status: Arrived
Operator: Privately registered:
United States
More flights under this callsign
Pilot: Gabor H. (24209)
Aircraft: SOCATA TBM-900
(TBM9)
More flights by this aircraft type
Origin: KSAD Safford Regl
United States
Destination: KABQ Albuquerque Intl Sunport
United States
More flights between these airports :: More routes between these airports
Route: SJN LAVAN3
File this flight plan on PilotEdge
Remarks:
Altitude:
(Current/Filed)
25,000ft
Speed:
(Current/Filed)
295kts
Departed: 26-Nov-23 09:29 AM
Arrived: 26-Nov-23 10:18 AM
Distance/Time
Traveled:
199nm/0:49
Distance/Time
To Go:
Arrived

Flight Plot

Page will automatically refresh every two minutes.

Flight plan parsing failed; only flown route is shown


Map Options




Map Legend


Flown Route
Filed Route
Departure Airport
Arrival Airport
Navaid (VOR, NDB)
Fix

Horizontal Profiles

Position Reports

Time Latitude Longitude Heading Altitude Ground
Speed
26-Nov-23 09:17 32.853031 -109.638771 178 3165ft 0kts
26-Nov-23 09:18 32.853031 -109.638771 178 3165ft 0kts
26-Nov-23 09:19 32.853031 -109.638771 178 3165ft 0kts
26-Nov-23 09:20 32.853031 -109.638771 178 3165ft 0kts
26-Nov-23 09:21 32.853031 -109.638771 178 3165ft 0kts
26-Nov-23 09:22 32.853031 -109.638771 178 3165ft 0kts
26-Nov-23 09:23 32.853031 -109.638771 178 3165ft 0kts
26-Nov-23 09:24 32.853031 -109.638771 178 3165ft 0kts
26-Nov-23 09:25 32.853004 -109.638770 178 3165ft 3kts
26-Nov-23 09:26 32.854450 -109.638296 315 3167ft 20kts
26-Nov-23 09:27 32.858120 -109.642515 332 3164ft 0kts
26-Nov-23 09:28 32.856471 -109.639555 136 3166ft 78kts
26-Nov-23 09:29 32.839640 -109.608062 48 4971ft 144kts
26-Nov-23 09:30 32.874513 -109.624713 359 7699ft 141kts
26-Nov-23 09:31 32.912700 -109.616645 14 10049ft 149kts
26-Nov-23 09:32 32.953381 -109.604255 16 12558ft 161kts
26-Nov-23 09:33 32.997656 -109.590486 6 15193ft 165kts
26-Nov-23 09:34 33.042188 -109.576882 2 17732ft 170kts
26-Nov-23 09:35 33.088865 -109.562493 0 20407ft 178kts
26-Nov-23 09:36 33.137709 -109.547415 358 22877ft 188kts
26-Nov-23 09:37 33.189090 -109.531593 357 25244ft 203kts
26-Nov-23 09:38 33.256920 -109.510616 2 25274ft 287kts
26-Nov-23 09:39 33.337877 -109.485441 3 25257ft 309kts
26-Nov-23 09:40 33.422009 -109.459268 3 25255ft 315kts
26-Nov-23 09:41 33.506860 -109.432811 3 25270ft 316kts
26-Nov-23 09:42 33.591885 -109.406276 3 25296ft 317kts
26-Nov-23 09:43 33.677101 -109.379607 2 25301ft 318kts
26-Nov-23 09:44 33.762430 -109.352855 2 25301ft 318kts
26-Nov-23 09:45 33.848041 -109.325953 3 25288ft 318kts
26-Nov-23 09:46 33.933482 -109.299064 3 25289ft 318kts
26-Nov-23 09:47 34.018697 -109.272183 3 25292ft 317kts
26-Nov-23 09:49 34.103657 -109.245315 3 25287ft 316kts
26-Nov-23 09:50 34.188626 -109.218396 3 25289ft 315kts
26-Nov-23 09:51 34.273232 -109.191535 3 25290ft 315kts
26-Nov-23 09:52 34.358027 -109.164573 3 25291ft 315kts
26-Nov-23 09:53 34.433041 -109.111882 66 25264ft 360kts
26-Nov-23 09:54 34.450172 -108.991723 75 25293ft 364kts
26-Nov-23 09:55 34.470670 -108.871420 75 25296ft 365kts
26-Nov-23 09:56 34.491060 -108.751195 75 25296ft 366kts
26-Nov-23 09:57 34.511486 -108.630027 75 25307ft 367kts
26-Nov-23 09:58 34.531779 -108.508866 75 25330ft 368kts
26-Nov-23 09:59 34.552051 -108.387031 75 25344ft 369kts
26-Nov-23 10:00 34.572299 -108.264596 76 25332ft 370kts
26-Nov-23 10:01 34.592448 -108.141943 76 25335ft 370kts
26-Nov-23 10:02 34.612431 -108.019434 76 25335ft 370kts
26-Nov-23 10:03 34.632312 -107.896838 76 25342ft 371kts
26-Nov-23 10:04 34.652851 -107.769244 76 23642ft 397kts
26-Nov-23 10:05 34.690974 -107.647524 57 21554ft 381kts
26-Nov-23 10:06 34.735850 -107.535242 64 19538ft 361kts
26-Nov-23 10:07 34.772576 -107.424537 64 17547ft 344kts
26-Nov-23 10:08 34.807356 -107.319206 66 15553ft 331kts
26-Nov-23 10:09 34.840696 -107.217869 66 13534ft 315kts
26-Nov-23 10:10 34.872537 -107.120790 66 11523ft 300kts
26-Nov-23 10:11 34.902425 -107.029353 67 9505ft 284kts
26-Nov-23 10:12 34.929705 -106.941443 78 7981ft 263kts
26-Nov-23 10:13 34.942893 -106.858907 78 7885ft 240kts
26-Nov-23 10:14 34.955160 -106.780884 77 7381ft 218kts
26-Nov-23 10:15 34.957210 -106.717061 53 6921ft 186kts
26-Nov-23 10:15 34.983795 -106.676011 41 6216ft 169kts
26-Nov-23 10:17 35.013458 -106.641092 41 5634ft 99kts
26-Nov-23 10:18 35.028428 -106.623161 43 5316ft 34kts
26-Nov-23 10:18 35.030275 -106.622372 320 5316ft 0kts
26-Nov-23 10:19 35.031234 -106.621907 44 5317ft 15kts
26-Nov-23 10:20 35.035254 -106.617072 41 5318ft 21kts
26-Nov-23 10:22 35.039114 -106.615786 307 5318ft 14kts
26-Nov-23 10:22 35.039006 -106.618793 248 5318ft 2kts
26-Nov-23 10:23 35.038988 -106.619113 269 5318ft 0kts
26-Nov-23 10:24 35.038988 -106.619113 269 5318ft 0kts
26-Nov-23 10:25 35.038988 -106.619113 269 5318ft 0kts
26-Nov-23 10:26 35.038988 -106.619113 269 5318ft 0kts
26-Nov-23 10:27 35.038988 -106.619113 269 5318ft 0kts
26-Nov-23 10:28 35.038988 -106.619113 269 5318ft 0kts
26-Nov-23 10:29 35.038988 -106.619113 269 5318ft 0kts
26-Nov-23 10:31 35.038988 -106.619113 269 5318ft 0kts
26-Nov-23 10:31 35.038988 -106.619113 269 5318ft 0kts

Navigation Log

Ident Type
Flight plan parsing failed, navigation log unavailable